Time;durP1;ratioP1;P1;durP2;ratioP2;P2;SDS_P1;SDS_P2;PMS_P1;PMS_P2;Temp;Humidity;BMP_temperature;BMP_pressure;BME280_temperature;BME280_humidity;BME280_pressure;Samples;Min_cycle;Max_cycle;Signal;HPM_P1;HPM_P2
2021/10/05 00:02:06;;;;;;;11.23;3.90;;;;;;;11.23;76.35;101112.50;5095432;28;20392;-64
2021/10/05 00:04:33;;;;;;;9.38;3.50;;;;;;;11.27;75.79;101108.53;5092936;28;20451;-64
2021/10/05 00:06:59;;;;;;;8.70;3.47;;;;;;;11.20;76.30;101107.47;5060238;28;20458;-64
2021/10/05 00:09:26;;;;;;;7.85;3.33;;;;;;;11.23;76.45;101101.88;5084932;28;20268;-64
2021/10/05 00:11:53;;;;;;;9.82;3.67;;;;;;;11.26;76.40;101109.50;5082785;28;20040;-64
2021/10/05 00:14:20;;;;;;;9.75;3.30;;;;;;;11.22;76.33;101098.34;5073978;28;20443;-65
2021/10/05 00:16:47;;;;;;;9.48;3.55;;;;;;;11.24;76.06;101096.41;5077767;28;20447;-64
2021/10/05 00:19:15;;;;;;;8.82;3.38;;;;;;;11.28;76.34;101095.13;5085354;28;20036;-64
2021/10/05 00:21:43;;;;;;;13.95;4.00;;;;;;;11.32;76.13;101093.81;5080148;28;20051;-64
2021/10/05 00:24:11;;;;;;;12.90;3.90;;;;;;;11.29;76.31;101095.94;5094299;28;20043;-64
2021/10/05 00:26:39;;;;;;;9.88;3.55;;;;;;;11.32;76.25;101091.16;5094227;28;20044;-64
2021/10/05 00:29:06;;;;;;;8.35;3.20;;;;;;;11.31;76.16;101086.84;5088693;28;20052;-64
2021/10/05 00:31:33;;;;;;;8.93;3.65;;;;;;;11.33;75.75;101084.88;5084801;28;20040;-64
2021/10/05 00:33:59;;;;;;;10.93;3.95;;;;;;;11.34;76.13;101075.91;5092442;28;20514;-64
2021/10/05 00:36:26;;;;;;;13.48;3.75;;;;;;;11.32;76.59;101080.53;5092322;28;20550;-64
2021/10/05 00:38:53;;;;;;;9.10;3.80;;;;;;;11.40;76.02;101073.66;5093797;28;20047;-64
2021/10/05 00:41:20;;;;;;;11.02;3.75;;;;;;;11.33;76.29;101060.97;5087627;28;20047;-64
2021/10/05 00:43:46;;;;;;;8.68;3.90;;;;;;;11.26;76.72;101054.59;5091342;28;20046;-64
2021/10/05 00:46:15;;;;;;;9.52;3.67;;;;;;;11.28;76.79;101063.25;5086747;28;20040;-64
2021/10/05 00:48:41;;;;;;;9.57;3.35;;;;;;;11.28;76.62;101051.81;5082858;28;20115;-64
2021/10/05 00:51:08;;;;;;;9.68;3.50;;;;;;;11.25;76.24;101050.25;5071933;28;20094;-64
2021/10/05 00:53:35;;;;;;;19.33;4.05;;;;;;;11.25;76.44;101052.91;5090583;28;20036;-64
2021/10/05 00:56:03;;;;;;;15.48;3.67;;;;;;;11.18;76.13;101048.38;5093570;28;20044;-64
2021/10/05 00:58:30;;;;;;;11.02;3.78;;;;;;;11.15;76.21;101041.53;5092332;28;20040;-64
2021/10/05 01:00:56;;;;;;;10.05;3.63;;;;;;;11.21;76.56;101048.06;5075409;28;20459;-65
2021/10/05 01:03:23;;;;;;;13.40;3.47;;;;;;;11.22;76.67;101042.59;5092215;28;20043;-64
2021/10/05 01:05:50;;;;;;;8.95;4.10;;;;;;;11.20;76.24;101030.47;5089982;28;20036;-64
2021/10/05 01:08:20;;;;;;;13.05;3.63;;;;;;;11.31;76.77;101030.22;5093386;28;20051;-64
2021/10/05 01:10:47;;;;;;;8.35;3.53;;;;;;;11.22;76.50;101028.47;5090494;28;20043;-64
2021/10/05 01:13:14;;;;;;;10.05;3.97;;;;;;;11.22;76.58;101021.34;5091498;28;20385;-64
2021/10/05 01:15:41;;;;;;;8.15;3.60;;;;;;;11.23;76.77;101019.53;5092144;28;20061;-64
2021/10/05 01:18:08;;;;;;;10.35;3.80;;;;;;;11.28;76.62;101017.28;5093407;28;20047;-64
2021/10/05 01:20:51;;;;;;;8.55;3.45;;;;;;;11.26;76.53;101019.22;5091606;28;20423;-64
2021/10/05 01:23:18;;;;;;;9.45;4.00;;;;;;;11.23;76.50;100998.31;5093344;28;20496;-64
2021/10/05 01:25:45;;;;;;;16.15;4.03;;;;;;;11.23;76.39;101000.97;5091781;28;20040;-64
2021/10/05 01:28:12;;;;;;;9.30;3.83;;;;;;;11.19;76.76;100999.56;5091811;28;20504;-64
2021/10/05 01:30:38;;;;;;;9.10;4.07;;;;;;;11.21;76.76;100989.66;5092136;28;20097;-64
2021/10/05 01:33:05;;;;;;;9.23;3.80;;;;;;;11.11;77.37;100992.38;5074976;28;20043;-64
2021/10/05 01:35:32;;;;;;;10.52;3.88;;;;;;;11.11;77.11;100987.06;5080926;28;20097;-64
2021/10/05 01:37:59;;;;;;;7.88;3.60;;;;;;;11.07;76.83;100975.06;5091778;28;20042;-64
2021/10/05 01:40:25;;;;;;;10.68;3.95;;;;;;;11.19;76.74;100978.31;5092993;28;20086;-64
2021/10/05 01:42:52;;;;;;;8.75;3.90;;;;;;;11.22;76.72;100965.56;5092950;28;20040;-64
2021/10/05 01:45:19;;;;;;;8.73;3.47;;;;;;;11.16;77.33;100965.38;5091953;28;20408;-64
2021/10/05 01:47:46;;;;;;;9.63;3.67;;;;;;;11.14;76.97;100957.56;5093132;28;20067;-64
2021/10/05 01:50:12;;;;;;;10.57;3.50;;;;;;;11.15;76.92;100956.56;5091954;28;20036;-64
2021/10/05 01:52:39;;;;;;;8.55;3.75;;;;;;;11.09;77.16;100952.69;5106748;28;20464;-64
2021/10/05 01:55:07;;;;;;;11.52;3.65;;;;;;;11.13;76.86;100947.91;5085065;28;20075;-64
2021/10/05 01:57:34;;;;;;;11.73;3.60;;;;;;;11.20;76.85;100945.50;5065329;28;20086;-64
2021/10/05 02:00:02;;;;;;;9.40;3.78;;;;;;;11.13;77.58;100942.59;5088897;28;20040;-64
2021/10/05 02:02:40;;;;;;;8.25;3.55;;;;;;;11.13;77.35;100938.16;5110876;27;20437;-65
2021/10/05 02:05:08;;;;;;;10.45;3.75;;;;;;;11.13;77.04;100931.97;5108343;28;20574;-65
2021/10/05 02:07:35;;;;;;;9.68;4.05;;;;;;;11.13;77.67;100929.31;5110553;28;20039;-63
2021/10/05 02:10:04;;;;;;;10.45;3.78;;;;;;;11.11;77.17;100929.50;5108037;28;20092;-63
2021/10/05 02:12:31;;;;;;;10.75;4.05;;;;;;;11.14;77.15;100928.34;5109693;28;20044;-63
2021/10/05 02:14:58;;;;;;;9.27;3.58;;;;;;;11.12;77.29;100925.84;5110438;28;20055;-63
2021/10/05 02:17:24;;;;;;;9.75;3.78;;;;;;;11.13;77.23;100916.91;5110942;28;20051;-63
2021/10/05 02:19:52;;;;;;;8.15;3.55;;;;;;;11.09;77.53;100909.38;5109255;28;20565;-63
2021/10/05 02:22:18;;;;;;;11.85;3.90;;;;;;;11.12;77.41;100909.09;5098640;28;20090;-63
2021/10/05 02:24:46;;;;;;;8.95;3.75;;;;;;;11.13;77.23;100905.44;5096915;28;20036;-63
2021/10/05 02:27:16;;;;;;;8.77;3.80;;;;;;;11.20;76.72;100901.16;5089610;28;20036;-63
2021/10/05 02:29:44;;;;;;;8.63;4.18;;;;;;;11.12;77.46;100901.13;5102094;28;20134;-63
2021/10/05 02:32:13;;;;;;;10.40;4.47;;;;;;;11.08;77.25;100892.63;5109921;28;20035;-63
2021/10/05 02:34:41;;;;;;;9.63;3.83;;;;;;;11.19;77.16;100893.34;5107907;28;20500;-63
2021/10/05 02:37:08;;;;;;;11.32;4.47;;;;;;;11.24;76.96;100891.06;5108582;28;20040;-63
2021/10/05 02:39:36;;;;;;;8.90;4.10;;;;;;;11.11;77.08;100886.16;5088136;28;20048;-63
2021/10/05 02:42:03;;;;;;;13.45;3.88;;;;;;;11.13;77.16;100878.88;5071550;28;20037;-63
2021/10/05 02:44:30;;;;;;;9.43;3.45;;;;;;;11.22;76.75;100882.44;5093920;28;20050;-63
2021/10/05 02:46:57;;;;;;;8.88;3.78;;;;;;;11.22;76.40;100879.78;5109631;28;20047;-63
2021/10/05 02:49:24;;;;;;;11.95;3.55;;;;;;;11.17;76.81;100866.97;5110127;28;20054;-63
2021/10/05 02:51:50;;;;;;;22.25;4.20;;;;;;;11.21;77.11;100868.34;5091588;28;20043;-63
2021/10/05 02:54:17;;;;;;;8.70;3.47;;;;;;;11.19;76.90;100867.66;5101390;28;20043;-64
2021/10/05 02:56:44;;;;;;;8.75;3.40;;;;;;;11.22;77.36;100869.97;5096235;28;20043;-63
2021/10/05 02:59:12;;;;;;;9.85;3.17;;;;;;;11.21;77.13;100868.34;5091981;28;20047;-64
2021/10/05 03:01:39;;;;;;;8.48;3.40;;;;;;;11.17;77.56;100860.81;5090535;28;20040;-64
2021/10/05 03:04:06;;;;;;;9.20;3.05;;;;;;;11.24;76.88;100864.53;5107776;28;20408;-64
2021/10/05 03:06:33;;;;;;;8.38;3.28;;;;;;;11.20;77.01;100857.88;5104925;28;20055;-63
2021/10/05 03:09:00;;;;;;;8.07;3.28;;;;;;;11.10;77.39;100856.13;5089568;28;20040;-64
2021/10/05 03:11:27;;;;;;;8.95;3.20;;;;;;;11.13;77.21;100847.03;5102975;28;20534;-64
2021/10/05 03:13:53;;;;;;;11.43;3.13;;;;;;;11.07;77.27;100845.81;5095997;28;20044;-64
2021/10/05 03:16:20;;;;;;;9.73;3.33;;;;;;;11.13;77.80;100836.41;5095645;28;20044;-64
2021/10/05 03:18:47;;;;;;;9.75;3.50;;;;;;;11.08;77.39;100847.50;5095581;28;20051;-63
2021/10/05 03:21:14;;;;;;;7.97;2.83;;;;;;;11.16;77.07;100840.59;5095117;28;20062;-63
2021/10/05 03:23:41;;;;;;;9.55;3.10;;;;;;;11.12;77.67;100832.91;5095677;28;20378;-64
2021/10/05 03:26:07;;;;;;;7.63;3.08;;;;;;;11.08;77.20;100823.59;5095844;28;20059;-64
2021/10/05 03:28:34;;;;;;;11.15;2.67;;;;;;;11.06;77.41;100824.72;5094116;28;20040;-64
2021/10/05 03:31:01;;;;;;;8.07;2.70;;;;;;;11.06;77.26;100825.59;5092613;28;20409;-64
2021/10/05 03:33:28;;;;;;;7.35;3.05;;;;;;;11.11;77.21;100823.31;5093115;28;20581;-64
2021/10/05 03:35:55;;;;;;;8.73;2.95;;;;;;;11.12;77.74;100819.66;5093037;28;20105;-64
2021/10/05 03:38:22;;;;;;;7.03;2.80;;;;;;;11.10;77.59;100820.81;5094172;28;20046;-64
2021/10/05 03:40:50;;;;;;;8.75;3.17;;;;;;;11.12;77.46;100809.03;5077844;28;20048;-64
2021/10/05 03:43:17;;;;;;;8.88;2.72;;;;;;;11.14;77.30;100803.56;5075084;28;20044;-65
2021/10/05 03:45:44;;;;;;;7.18;2.80;;;;;;;11.13;77.81;100799.22;5074935;28;20052;-64
2021/10/05 03:48:12;;;;;;;9.13;2.97;;;;;;;11.06;77.84;100796.38;5084610;28;20050;-64
2021/10/05 03:50:39;;;;;;;6.28;2.72;;;;;;;11.07;77.76;100800.69;5089724;28;20047;-64
2021/10/05 03:53:06;;;;;;;8.18;2.92;;;;;;;11.09;77.92;100792.56;5088682;28;20036;-64
2021/10/05 03:55:33;;;;;;;8.13;2.90;;;;;;;11.09;77.49;100790.75;5057871;28;20119;-64
2021/10/05 03:58:00;;;;;;;10.07;3.03;;;;;;;11.12;77.39;100785.13;5073206;28;20494;-65
2021/10/05 04:00:27;;;;;;;7.05;3.10;;;;;;;11.05;78.00;100789.41;5093133;28;20093;-64
2021/10/05 04:02:55;;;;;;;8.07;3.03;;;;;;;11.04;78.35;100786.88;5094533;28;20074;-64
2021/10/05 04:05:22;;;;;;;7.03;3.10;;;;;;;11.00;78.34;100780.25;5082810;28;20142;-64
2021/10/05 04:07:49;;;;;;;9.57;3.00;;;;;;;11.08;78.21;100778.47;5093790;28;20044;-64
2021/10/05 04:10:15;;;;;;;9.05;3.40;;;;;;;11.16;78.37;100772.38;5093219;28;20412;-64
2021/10/05 04:12:42;;;;;;;8.63;3.25;;;;;;;11.11;78.27;100775.53;5074486;28;20416;-64
2021/10/05 04:15:09;;;;;;;9.85;3.20;;;;;;;11.11;78.50;100772.00;5089003;28;20052;-65
2021/10/05 04:17:36;;;;;;;7.65;3.17;;;;;;;11.03;78.81;100769.31;5092781;28;20054;-64
2021/10/05 04:20:04;;;;;;;9.23;3.30;;;;;;;11.03;78.70;100764.00;5093971;28;20389;-66
2021/10/05 04:22:31;;;;;;;6.90;3.05;;;;;;;11.01;78.67;100766.81;5094085;28;20472;-64
2021/10/05 04:24:58;;;;;;;9.52;3.30;;;;;;;10.99;78.84;100762.63;5091935;28;20043;-65
2021/10/05 04:27:25;;;;;;;7.97;3.67;;;;;;;11.06;78.52;100755.72;5094007;28;20044;-64
2021/10/05 04:29:52;;;;;;;7.97;3.60;;;;;;;11.00;78.87;100759.00;5085941;28;20094;-64
2021/10/05 04:32:19;;;;;;;8.30;3.80;;;;;;;11.05;78.73;100756.72;5085776;28;20059;-64
2021/10/05 04:34:47;;;;;;;8.77;3.40;;;;;;;11.07;79.25;100755.56;5092963;28;20036;-64
2021/10/05 04:37:13;;;;;;;7.57;3.33;;;;;;;11.07;78.94;100750.25;5093097;28;20126;-64
2021/10/05 04:39:40;;;;;;;9.25;3.50;;;;;;;11.09;78.89;100748.25;5092695;28;20412;-64
2021/10/05 04:42:07;;;;;;;13.45;3.63;;;;;;;11.13;78.65;100748.78;5093073;28;20036;-64
2021/10/05 04:44:34;;;;;;;7.78;3.50;;;;;;;11.11;78.77;100741.00;5093770;28;20421;-64
2021/10/05 04:47:00;;;;;;;10.77;3.63;;;;;;;11.06;78.85;100740.63;5093787;28;20444;-64
2021/10/05 04:49:27;;;;;;;9.18;3.85;;;;;;;11.14;78.74;100740.66;5053134;28;20040;-64
2021/10/05 04:51:54;;;;;;;11.40;3.80;;;;;;;11.03;79.35;100732.97;5094089;28;20055;-64
2021/10/05 04:54:20;;;;;;;8.02;3.90;;;;;;;11.04;79.17;100726.69;5084392;28;20118;-64
2021/10/05 04:56:49;;;;;;;9.90;3.70;;;;;;;10.99;79.17;100728.13;5063925;28;20123;-63
2021/10/05 04:59:16;;;;;;;7.30;3.97;;;;;;;11.06;79.39;100727.38;5072994;28;20044;-64
2021/10/05 05:01:44;;;;;;;10.52;4.03;;;;;;;11.09;79.25;100721.72;5086448;28;20051;-64
2021/10/05 05:04:11;;;;;;;9.60;4.50;;;;;;;11.08;79.38;100708.63;5088265;28;20135;-64
2021/10/05 05:06:39;;;;;;;8.98;3.67;;;;;;;11.09;79.00;100715.59;5075426;28;20037;-63
2021/10/05 05:09:06;;;;;;;9.52;4.00;;;;;;;11.06;79.40;100699.97;5074983;28;20036;-63
2021/10/05 05:11:33;;;;;;;10.20;4.18;;;;;;;10.99;80.02;100698.94;5091978;28;20396;-64
2021/10/05 05:14:06;;;;;;;11.05;4.15;;;;;;;11.13;79.47;100685.91;5085885;28;20043;-63
2021/10/05 05:16:34;;;;;;;9.88;4.32;;;;;;;11.00;79.58;100690.81;5064761;28;20040;-63
2021/10/05 05:19:02;;;;;;;9.73;4.30;;;;;;;10.92;79.96;100688.13;5090033;28;20043;-63
2021/10/05 05:21:29;;;;;;;8.95;4.25;;;;;;;10.93;80.53;100695.94;5092888;28;20048;-63
2021/10/05 05:23:57;;;;;;;7.80;4.13;;;;;;;10.96;79.97;100689.47;5091646;28;20044;-63
2021/10/05 05:26:24;;;;;;;9.38;4.10;;;;;;;10.90;80.19;100693.59;5093090;28;20071;-64
2021/10/05 05:28:52;;;;;;;10.52;4.70;;;;;;;10.97;80.24;100683.19;5085295;28;20044;-64
2021/10/05 05:31:18;;;;;;;11.55;4.43;;;;;;;10.98;80.15;100678.69;5091993;28;20054;-64
2021/10/05 05:33:46;;;;;;;10.45;4.95;;;;;;;10.95;79.93;100685.13;5089853;28;20048;-64
2021/10/05 05:36:13;;;;;;;9.45;4.70;;;;;;;11.00;80.17;100680.19;5092358;28;20132;-64
2021/10/05 05:38:40;;;;;;;11.90;5.00;;;;;;;11.06;79.78;100678.72;5091944;28;20071;-64
2021/10/05 05:41:07;;;;;;;10.15;5.07;;;;;;;11.06;80.04;100678.72;5092552;28;20044;-64
2021/10/05 05:43:34;;;;;;;10.85;5.15;;;;;;;10.98;80.17;100679.53;5058093;28;20405;-64
2021/10/05 05:46:01;;;;;;;10.50;5.20;;;;;;;10.97;80.46;100674.38;5092513;28;20043;-64
2021/10/05 05:48:28;;;;;;;11.88;4.93;;;;;;;10.98;80.58;100673.41;5092707;28;20040;-64
2021/10/05 05:50:55;;;;;;;13.40;5.68;;;;;;;10.90;80.67;100666.22;5085664;28;20040;-64
2021/10/05 05:53:21;;;;;;;10.43;5.22;;;;;;;10.98;80.69;100666.25;5093194;28;20396;-65
2021/10/05 05:55:49;;;;;;;12.57;5.10;;;;;;;11.04;80.38;100662.13;5075399;28;20492;-64
2021/10/05 05:58:17;;;;;;;14.43;5.28;;;;;;;11.01;80.63;100660.63;5070360;28;20045;-64
2021/10/05 06:00:45;;;;;;;12.38;5.53;;;;;;;11.13;79.92;100664.69;5091998;28;20052;-65
2021/10/05 06:03:13;;;;;;;11.93;5.70;;;;;;;11.03;80.25;100661.31;5088383;28;20036;-65
2021/10/05 06:05:40;;;;;;;10.82;5.22;;;;;;;11.07;80.33;100665.31;5091006;28;20412;-65
2021/10/05 06:08:08;;;;;;;9.60;5.03;;;;;;;11.09;80.40;100660.66;5092210;28;20424;-64
2021/10/05 06:10:36;;;;;;;15.45;5.25;;;;;;;11.19;79.85;100662.34;5091353;28;20059;-64
2021/10/05 06:13:03;;;;;;;12.10;4.78;;;;;;;11.21;79.97;100663.06;5091444;28;20036;-64
2021/10/05 06:15:30;;;;;;;10.63;5.22;;;;;;;11.13;79.80;100654.06;5091731;28;20404;-64
2021/10/05 06:17:56;;;;;;;11.02;5.40;;;;;;;11.19;80.09;100651.72;5093044;28;20044;-64
2021/10/05 06:20:26;;;;;;;9.52;5.25;;;;;;;11.23;79.87;100648.63;5092520;28;20051;-65
2021/10/05 06:22:54;;;;;;;10.45;5.75;;;;;;;11.28;79.66;100646.31;5092277;28;20047;-65
2021/10/05 06:25:24;;;;;;;13.85;5.93;;;;;;;11.34;79.59;100639.53;5091837;28;20047;-64
2021/10/05 06:27:52;;;;;;;10.10;5.80;;;;;;;11.33;79.46;100648.47;5091907;28;20036;-64
2021/10/05 06:30:19;;;;;;;11.50;5.55;;;;;;;11.28;79.43;100646.31;5102835;28;20040;-65
2021/10/05 06:32:56;;;;;;;12.27;5.85;;;;;;;11.26;79.95;100644.78;5078672;28;20050;-64
2021/10/05 06:35:26;;;;;;;12.43;6.20;;;;;;;11.36;79.23;100642.03;5079845;28;20048;-64
2021/10/05 06:37:54;;;;;;;10.75;5.90;;;;;;;11.32;79.63;100638.84;5079294;28;20522;-64
2021/10/05 06:40:23;;;;;;;14.50;6.25;;;;;;;11.41;79.55;100650.34;5095580;28;20127;-65
2021/10/05 06:42:50;;;;;;;12.48;5.95;;;;;;;11.38;79.45;100638.19;5088891;28;20447;-64
2021/10/05 06:45:17;;;;;;;11.48;6.22;;;;;;;11.41;79.31;100640.53;5086039;28;20127;-64
2021/10/05 06:47:45;;;;;;;12.38;6.15;;;;;;;11.44;79.40;100629.59;5092691;28;20046;-64
2021/10/05 06:50:14;;;;;;;14.75;6.20;;;;;;;11.41;79.57;100637.88;5103515;28;20032;-64
2021/10/05 06:52:42;;;;;;;15.20;6.47;;;;;;;11.46;79.63;100638.22;5104465;28;20040;-64
2021/10/05 06:55:09;;;;;;;14.38;6.35;;;;;;;11.46;79.33;100632.91;5089210;28;20080;-64
2021/10/05 06:57:36;;;;;;;13.50;6.57;;;;;;;11.60;78.89;100627.97;5095890;28;20042;-64
2021/10/05 07:00:11;;;;;;;14.02;6.82;;;;;;;11.66;78.72;100633.47;5098949;28;20035;-64
2021/10/05 07:02:38;;;;;;;12.35;6.45;;;;;;;11.68;78.88;100626.16;5101224;28;20044;-64
2021/10/05 07:05:06;;;;;;;14.48;6.70;;;;;;;11.68;78.70;100620.00;5085346;28;20121;-64
2021/10/05 07:07:32;;;;;;;12.65;6.53;;;;;;;11.70;78.78;100620.69;5098184;28;20468;-64
2021/10/05 07:09:59;;;;;;;12.13;6.15;;;;;;;11.76;78.59;100614.69;5089934;28;20036;-64
2021/10/05 07:12:26;;;;;;;16.50;6.68;;;;;;;11.79;78.32;100622.34;5080651;28;20497;-64
2021/10/05 07:14:53;;;;;;;20.13;6.22;;;;;;;11.77;78.48;100613.72;5080647;28;20412;-65
2021/10/05 07:17:34;;;;;;;17.05;5.88;;;;;;;11.85;78.45;100613.69;5081507;28;20044;-63
2021/10/05 07:20:03;;;;;;;11.68;6.25;;;;;;;11.78;78.85;100612.69;5080678;28;20043;-65
2021/10/05 07:22:30;;;;;;;12.50;6.20;;;;;;;11.93;78.39;100615.56;5083024;28;20072;-64
2021/10/05 07:24:57;;;;;;;11.85;5.35;;;;;;;12.02;78.57;100603.09;5066812;28;20507;-62
2021/10/05 07:27:24;;;;;;;11.65;6.38;;;;;;;12.12;78.47;100598.44;5093782;28;20493;-63
2021/10/05 07:29:52;;;;;;;10.80;5.95;;;;;;;12.22;78.38;100591.09;5094937;28;20516;-63
2021/10/05 07:32:19;;;;;;;13.95;5.97;;;;;;;12.20;78.14;100587.78;5079788;28;20033;-64
2021/10/05 07:34:46;;;;;;;12.02;5.90;;;;;;;12.17;78.12;100590.81;5088273;28;20047;-63
2021/10/05 07:37:13;;;;;;;11.23;5.85;;;;;;;12.29;78.06;100588.63;5078687;28;20072;-63
2021/10/05 07:39:42;;;;;;;13.50;5.97;;;;;;;12.39;77.30;100577.81;5082046;28;20032;-63
2021/10/05 07:42:09;;;;;;;13.70;6.25;;;;;;;12.47;77.12;100580.44;5079246;28;20400;-64
2021/10/05 07:44:35;;;;;;;12.48;6.38;;;;;;;12.63;77.03;100569.75;5125665;27;20046;-64
2021/10/05 07:47:02;;;;;;;11.60;5.72;;;;;;;12.63;76.52;100564.41;5089086;28;21301;-63
2021/10/05 07:49:29;;;;;;;13.35;5.95;;;;;;;12.74;76.59;100565.88;5103063;28;20436;-64
2021/10/05 07:51:57;;;;;;;11.98;5.85;;;;;;;12.77;76.68;100567.34;5101702;28;20047;-63
2021/10/05 07:54:29;;;;;;;11.98;5.53;;;;;;;12.93;75.31;100569.13;5079574;28;20393;-63
2021/10/05 07:56:56;;;;;;;12.93;5.72;;;;;;;13.02;75.19;100558.28;5080123;28;20053;-63
2021/10/05 07:59:22;;;;;;;11.07;5.50;;;;;;;13.05;74.64;100549.91;5094305;28;20043;-63
2021/10/05 08:01:51;;;;;;;12.13;5.50;;;;;;;13.06;74.69;100550.75;5085323;28;20092;-64
2021/10/05 08:04:18;;;;;;;11.45;5.18;;;;;;;13.06;74.03;100556.06;5114632;27;20508;-63
2021/10/05 08:06:45;;;;;;;11.75;5.38;;;;;;;12.97;73.62;100554.44;5091228;28;20062;-63
2021/10/05 08:09:14;;;;;;;13.38;5.25;;;;;;;12.96;74.34;100547.47;5097277;28;20043;-63
2021/10/05 08:11:42;;;;;;;9.48;4.82;;;;;;;13.00;74.25;100549.59;5092332;28;20036;-63
2021/10/05 08:14:09;;;;;;;10.23;5.18;;;;;;;13.17;74.42;100554.84;5091839;28;20052;-68
2021/10/05 08:16:36;;;;;;;11.25;5.03;;;;;;;13.34;72.58;100555.63;5085547;28;20040;-68
2021/10/05 08:19:04;;;;;;;11.70;5.00;;;;;;;13.43;72.45;100550.06;5082919;28;20461;-68
2021/10/05 08:21:31;;;;;;;13.30;4.65;;;;;;;13.42;72.26;100551.06;5088204;28;20056;-68
2021/10/05 08:23:58;;;;;;;10.25;4.88;;;;;;;13.50;72.33;100552.00;5082521;28;20032;-68
2021/10/05 08:26:25;;;;;;;10.18;4.65;;;;;;;13.49;72.12;100545.03;5079604;28;20052;-68
2021/10/05 08:28:52;;;;;;;10.13;4.22;;;;;;;13.61;72.12;100539.09;5093221;28;20075;-68
2021/10/05 08:31:19;;;;;;;8.18;4.32;;;;;;;13.68;71.86;100535.69;5094295;28;20494;-68
2021/10/05 08:33:47;;;;;;;11.02;4.63;;;;;;;13.73;71.27;100528.00;5083580;28;20042;-68
2021/10/05 08:36:17;;;;;;;8.77;4.32;;;;;;;13.73;71.23;100526.16;5088938;28;20036;-68
2021/10/05 08:38:44;;;;;;;10.40;4.68;;;;;;;13.74;71.49;100530.50;5083065;28;20056;-68
2021/10/05 08:41:12;;;;;;;12.50;4.60;;;;;;;13.80;70.99;100526.28;5077987;28;20056;-68
2021/10/05 08:43:41;;;;;;;9.35;4.43;;;;;;;13.85;70.72;100518.56;5108715;28;20042;-68
2021/10/05 08:46:09;;;;;;;11.20;4.55;;;;;;;13.81;70.74;100518.09;5089554;28;20044;-68
2021/10/05 08:48:37;;;;;;;11.93;4.00;;;;;;;13.85;70.09;100517.75;5092541;28;20570;-68
2021/10/05 08:51:05;;;;;;;9.50;3.63;;;;;;;13.95;70.82;100524.47;5075210;28;20044;-68
2021/10/05 08:53:36;;;;;;;13.02;4.13;;;;;;;14.06;69.58;100523.22;5094026;28;20028;-68
2021/10/05 08:56:06;;;;;;;10.88;4.30;;;;;;;14.14;69.38;100532.97;5075691;28;20043;-68
2021/10/05 08:58:34;;;;;;;11.43;3.88;;;;;;;14.18;70.10;100523.56;5104419;28;20044;-68
2021/10/05 09:01:18;;;;;;;8.60;3.80;;;;;;;14.28;69.55;100515.28;5097460;28;20044;-68
2021/10/05 09:03:54;;;;;;;8.73;3.80;;;;;;;14.32;69.02;100496.06;5096518;28;20051;-69
2021/10/05 09:06:23;;;;;;;8.82;4.03;;;;;;;14.18;69.39;100494.22;5079127;28;20047;-68
2021/10/05 09:08:53;;;;;;;14.13;4.20;;;;;;;14.31;68.75;100485.59;5092774;28;20074;-68
2021/10/05 09:11:24;;;;;;;7.50;3.53;;;;;;;14.68;68.55;100491.81;5088571;28;20040;-68
2021/10/05 09:13:54;;;;;;;11.00;4.05;;;;;;;15.57;65.22;100488.81;5099344;28;20059;-68
2021/10/05 09:19:07;;;;;;;7.25;3.10;;;;;;;17.96;56.76;100469.31;5127923;27;20405;-67
2021/10/05 09:21:43;;;;;;;9.18;2.92;;;;;;;18.87;54.17;100462.19;5126797;28;20067;-67
2021/10/05 09:24:28;;;;;;;10.18;3.47;;;;;;;19.45;52.23;100465.75;5100659;28;20040;-67
2021/10/05 09:26:58;;;;;;;10.18;3.05;;;;;;;19.89;51.27;100462.03;5102922;28;20044;-67
2021/10/05 09:29:35;;;;;;;9.18;3.00;;;;;;;20.67;49.37;100451.66;5111510;28;20427;-67
2021/10/05 09:32:07;;;;;;;8.25;2.80;;;;;;;19.59;51.33;100455.66;5114322;27;20130;-67
2021/10/05 09:34:44;;;;;;;17.05;2.88;;;;;;;19.65;51.06;100446.75;5125588;27;20044;-67
2021/10/05 09:37:18;;;;;;;9.15;3.08;;;;;;;20.50;48.64;100437.94;5100876;27;20058;-67
2021/10/05 09:39:53;;;;;;;6.35;2.70;;;;;;;21.58;46.49;100435.38;5099968;28;20050;-67
2021/10/05 09:42:24;;;;;;;10.90;2.80;;;;;;;22.50;44.58;100429.22;5092294;28;20032;-67
2021/10/05 09:44:55;;;;;;;9.50;3.00;;;;;;;22.40;43.36;100416.34;5096597;28;20051;-68
2021/10/05 09:47:46;;;;;;;5.82;2.30;;;;;;;22.39;43.64;100419.28;5101093;28;20435;-67
2021/10/05 09:50:22;;;;;;;11.73;2.67;;;;;;;23.24;42.19;100420.31;5095038;28;20043;-67
2021/10/05 09:52:52;;;;;;;6.30;2.40;;;;;;;22.32;42.29;100426.72;5099319;28;20127;-68
2021/10/05 09:55:21;;;;;;;7.65;2.40;;;;;;;20.85;45.84;100419.25;5098625;28;20032;-68
2021/10/05 09:57:49;;;;;;;9.07;2.60;;;;;;;22.54;42.65;100421.47;5109940;28;20047;-68
2021/10/05 10:00:17;;;;;;;8.75;2.33;;;;;;;23.09;41.21;100410.06;5121888;27;20039;-68
2021/10/05 10:02:47;;;;;;;7.83;2.43;;;;;;;23.38;40.76;100415.38;5114234;27;20373;-68
2021/10/05 10:05:17;;;;;;;5.68;2.10;;;;;;;24.07;39.03;100400.69;5093360;28;20101;-67
2021/10/05 10:07:47;;;;;;;7.88;2.30;;;;;;;24.82;38.62;100393.63;5091223;28;20044;-68
2021/10/05 10:10:18;;;;;;;12.60;2.53;;;;;;;25.54;35.94;100387.97;5100059;28;20124;-68
2021/10/05 10:12:51;;;;;;;7.22;2.50;;;;;;;26.00;35.40;100383.63;5087491;28;20039;-68
2021/10/05 10:15:22;;;;;;;7.18;2.20;;;;;;;25.84;35.87;100381.88;5087891;28;20044;-67
2021/10/05 10:17:49;;;;;;;7.35;2.40;;;;;;;24.94;37.11;100366.38;5103155;28;20048;-68
2021/10/05 10:20:26;;;;;;;7.20;2.33;;;;;;;25.05;35.89;100359.09;5083171;28;20496;-70
2021/10/05 10:22:53;;;;;;;10.27;2.20;;;;;;;25.36;35.64;100343.91;5113080;28;20136;-69
2021/10/05 10:28:15;;;;;;;6.18;2.10;;;;;;;26.11;34.39;100326.59;5106614;27;20401;-68
2021/10/05 10:30:51;;;;;;;9.40;2.08;;;;;;;25.02;36.30;100321.66;5098451;28;20143;-68
2021/10/05 10:33:19;;;;;;;8.85;2.17;;;;;;;25.13;35.61;100322.53;5116164;27;20055;-68
2021/10/05 10:36:01;;;;;;;8.38;2.28;;;;;;;25.23;35.80;100317.16;5129039;27;20575;-67
2021/10/05 10:38:30;;;;;;;8.07;2.28;;;;;;;25.89;35.02;100311.28;5079662;28;20040;-67
2021/10/05 10:40:58;;;;;;;11.82;2.00;;;;;;;26.57;33.77;100319.31;5107985;28;20571;-67
2021/10/05 10:43:28;;;;;;;6.32;1.90;;;;;;;25.75;33.90;100308.22;5107786;28;20040;-68
2021/10/05 10:45:57;;;;;;;8.93;2.10;;;;;;;25.49;35.52;100299.16;5107675;28;20403;-68
2021/10/05 10:48:40;;;;;;;10.65;1.95;;;;;;;24.95;35.87;100307.47;5113205;27;20064;-68
2021/10/05 10:51:16;;;;;;;7.80;1.92;;;;;;;24.18;38.10;100299.47;5098323;28;20036;-67
2021/10/05 10:53:44;;;;;;;7.88;2.08;;;;;;;24.20;37.58;100305.44;5119051;28;20067;-68
2021/10/05 10:56:26;;;;;;;10.98;2.13;;;;;;;23.49;39.55;100278.31;5105925;27;20040;-71
2021/10/05 10:58:57;;;;;;;;;;;;;;;23.87;39.15;100295.59;5102342;28;20512;-69
2021/10/05 11:01:34;;;;;;;6.55;1.80;;;;;;;23.57;39.88;100267.03;5122819;27;20403;-68
2021/10/05 11:04:06;;;;;;;8.18;2.28;;;;;;;23.56;40.03;100265.44;5104770;28;20040;-69
2021/10/05 11:06:33;;;;;;;9.18;1.85;;;;;;;23.23;38.24;100266.31;5101212;28;20046;-69
2021/10/05 11:09:02;;;;;;;7.30;2.10;;;;;;;22.98;39.52;100257.56;5117843;28;20039;-69
2021/10/05 11:11:34;;;;;;;8.80;2.10;;;;;;;22.97;39.78;100258.63;5110517;28;20046;-69
2021/10/05 11:14:06;;;;;;;6.38;2.10;;;;;;;23.09;39.75;100261.28;5099351;28;20050;-69
2021/10/05 11:16:37;;;;;;;8.75;1.80;;;;;;;23.04;39.47;100263.06;5105214;28;20050;-68
2021/10/05 11:19:10;;;;;;;5.47;1.92;;;;;;;22.46;40.35;100262.41;5111519;28;20503;-69
2021/10/05 11:21:40;;;;;;;9.23;1.80;;;;;;;22.93;38.65;100260.19;5107264;28;20508;-69
2021/10/05 11:24:08;;;;;;;7.88;1.90;;;;;;;23.31;38.44;100252.38;5108905;28;20039;-69
2021/10/05 11:26:38;;;;;;;8.15;2.45;;;;;;;23.42;38.35;100247.91;5104446;28;20051;-69
2021/10/05 11:29:06;;;;;;;12.90;1.83;;;;;;;22.41;39.21;100255.88;5102615;28;20037;-69
2021/10/05 11:31:53;;;;;;;7.95;1.85;;;;;;;22.69;39.76;100239.81;5104170;28;20078;-68
2021/10/05 11:34:20;;;;;;;10.65;2.03;;;;;;;22.72;38.95;100248.25;5112098;28;20396;-69